createdAt,value
2022-10-25T00:01:50.006Z,99549.66
2022-10-25T00:06:56.690Z,99557.13
2022-10-25T00:09:44.136Z,99563.47
2022-10-25T00:12:18.507Z,99565.81
2022-10-25T00:17:38.245Z,99562.09
2022-10-25T00:20:10.215Z,99579.78
2022-10-25T00:22:44.809Z,99528.03
2022-10-25T00:25:16.687Z,99549.63
2022-10-25T00:27:52.965Z,99566.94
2022-10-25T00:30:23.657Z,99579.13
2022-10-25T00:32:55.266Z,99573.16
2022-10-25T00:35:25.004Z,99582.97
2022-10-25T00:37:56.737Z,99583.84
2022-10-25T00:40:35.135Z,99583.97
2022-10-25T00:43:06.087Z,99578.28
2022-10-25T00:45:42.075Z,99578.69
2022-10-25T00:48:16.064Z,99580.06
2022-10-25T00:50:51.379Z,99582.69
2022-10-25T00:53:22.056Z,99582.03
2022-10-25T00:56:05.069Z,99582.31
2022-10-25T00:58:57.714Z,99584.50
2022-10-25T01:01:36.537Z,99587.00
2022-10-25T01:04:14.274Z,99583.25
2022-10-25T01:06:51.735Z,99577.59
2022-10-25T01:09:35.654Z,99581.31
2022-10-25T01:12:19.716Z,99578.53
2022-10-25T01:14:54.735Z,99581.16
2022-10-25T01:17:35.114Z,99583.41
2022-10-25T01:20:52.635Z,99586.31
2022-10-25T01:23:41.324Z,99588.22
2022-10-25T01:26:44.335Z,99593.47
2022-10-25T01:29:37.114Z,99590.59
2022-10-25T01:32:19.356Z,99594.88
2022-10-25T01:35:10.636Z,99583.78
2022-10-25T01:38:02.875Z,99584.94
2022-10-25T01:41:04.844Z,99591.13
2022-10-25T01:43:51.908Z,99586.03
2022-10-25T01:46:27.915Z,99585.03
2022-10-25T01:49:05.178Z,99578.13
2022-10-25T01:51:38.397Z,99577.16
2022-10-25T01:54:21.394Z,99575.91
2022-10-25T01:57:17.054Z,99581.88
2022-10-25T02:00:10.075Z,99574.25
2022-10-25T02:02:54.245Z,99572.69
2022-10-25T02:05:46.824Z,99570.53
2022-10-25T02:08:26.565Z,99573.50
2022-10-25T02:11:03.664Z,99569.81
2022-10-25T02:14:08.784Z,99555.53
2022-10-25T02:16:47.244Z,99556.78
2022-10-25T02:19:24.910Z,99562.03
2022-10-25T02:22:25.806Z,99557.63
2022-10-25T02:25:01.294Z,99564.09
2022-10-25T02:27:33.760Z,99560.38
2022-10-25T02:30:16.874Z,99552.19
2022-10-25T02:32:47.105Z,99557.63
2022-10-25T02:35:33.746Z,99559.00
2022-10-25T02:38:05.044Z,99560.50
2022-10-25T02:40:36.179Z,99553.47
2022-10-25T02:43:07.581Z,99555.66
2022-10-25T02:45:53.594Z,99552.06
2022-10-25T02:48:29.384Z,99553.84
2022-10-25T02:51:15.204Z,99552.34
2022-10-25T02:53:55.735Z,99539.88
2022-10-25T02:56:29.365Z,99540.72
2022-10-25T02:58:59.755Z,99533.69
2022-10-25T03:01:34.772Z,99532.53
2022-10-25T03:04:12.844Z,99533.25
2022-10-25T03:07:02.955Z,99528.97
2022-10-25T03:09:44.134Z,99533.09
2022-10-25T03:12:16.125Z,99537.13
2022-10-25T03:14:46.834Z,99533.53
2022-10-25T03:17:31.805Z,99532.69
2022-10-25T03:20:03.138Z,99532.16
2022-10-25T03:22:54.336Z,99536.56
2022-10-25T03:25:26.835Z,99539.88
2022-10-25T03:28:10.325Z,99528.69
2022-10-25T03:30:53.785Z,99520.66
2022-10-25T03:33:23.284Z,99524.25
2022-10-25T03:36:10.051Z,99517.47
2022-10-25T03:38:48.396Z,99518.19
2022-10-25T03:41:25.414Z,99526.88
2022-10-25T03:44:08.635Z,99523.16
2022-10-25T03:46:40.594Z,99528.53
2022-10-25T03:52:39.188Z,99524.00
2022-10-25T03:55:12.604Z,99524.00
2022-10-25T03:57:48.116Z,99521.63
2022-10-25T04:00:20.794Z,99527.00
2022-10-25T04:03:01.721Z,99521.91
2022-10-25T04:05:53.837Z,99520.22
2022-10-25T04:08:22.976Z,99516.94
2022-10-25T04:10:54.704Z,99515.94
2022-10-25T04:13:26.285Z,99517.19
2022-10-25T04:15:56.065Z,99517.88
2022-10-25T04:21:33.644Z,99519.66
2022-10-25T04:24:04.343Z,99518.84
2022-10-25T04:26:36.620Z,99516.63
2022-10-25T04:29:47.674Z,99518.03
2022-10-25T04:32:28.097Z,99526.16
2022-10-25T04:38:23.715Z,99518.44
2022-10-25T04:41:22.294Z,99520.75
2022-10-25T04:43:54.275Z,99516.63
2022-10-25T04:46:58.144Z,99513.19
2022-10-25T04:49:41.165Z,99518.28
2022-10-25T04:52:14.384Z,99517.59
2022-10-25T04:54:47.368Z,99513.31
2022-10-25T04:57:21.044Z,99514.00
2022-10-25T05:00:02.415Z,99511.78
2022-10-25T05:02:37.278Z,99505.44
2022-10-25T05:05:23.965Z,99502.50
2022-10-25T05:08:15.606Z,99501.41
2022-10-25T05:10:44.005Z,99499.75
2022-10-25T05:13:12.465Z,99496.44
2022-10-25T05:15:41.005Z,99498.34
2022-10-25T05:18:10.804Z,99491.47
2022-10-25T05:20:39.306Z,99492.66
2022-10-25T05:23:07.775Z,99503.34
2022-10-25T05:25:36.206Z,99502.25
2022-10-25T05:28:04.784Z,99499.75
2022-10-25T05:30:33.284Z,99493.09
2022-10-25T05:33:04.149Z,99498.91
2022-10-25T05:35:35.134Z,99492.84
2022-10-25T05:38:03.836Z,99492.41
2022-10-25T05:40:32.194Z,99503.22
2022-10-25T05:43:00.645Z,99502.38
2022-10-25T05:45:29.034Z,99494.63
2022-10-25T05:47:57.414Z,99496.00
2022-10-25T05:50:25.884Z,99500.97
2022-10-25T05:52:55.694Z,99491.56
2022-10-25T05:55:24.084Z,99496.72
2022-10-25T05:57:53.084Z,99484.13
2022-10-25T06:00:21.668Z,99490.75
2022-10-25T06:02:50.025Z,99490.75
2022-10-25T06:05:18.485Z,99487.41
2022-10-25T06:07:46.845Z,99478.03
2022-10-25T06:10:16.774Z,99476.78
2022-10-25T06:12:45.515Z,99488.53
2022-10-25T06:15:14.075Z,99489.38
2022-10-25T06:17:42.495Z,99493.91
2022-10-25T06:20:11.498Z,99499.75
2022-10-25T06:22:39.864Z,99493.13
2022-10-25T06:25:25.555Z,99483.88
2022-10-25T06:27:56.554Z,99482.06
2022-10-25T06:30:27.630Z,99488.66
2022-10-25T06:32:59.847Z,99481.19
2022-10-25T06:35:30.196Z,99475.44
2022-10-25T06:38:01.285Z,99477.22
2022-10-25T06:40:31.416Z,99466.72
2022-10-25T06:42:59.815Z,99464.41
2022-10-25T06:45:28.284Z,99469.91
2022-10-25T06:47:56.965Z,99456.22
2022-10-25T06:50:25.435Z,99468.78
2022-10-25T06:52:53.854Z,99465.44
2022-10-25T06:55:22.315Z,99470.00
2022-10-25T06:57:52.165Z,99474.97
2022-10-25T07:00:20.796Z,99466.72
2022-10-25T07:02:56.755Z,99476.78
2022-10-25T07:05:25.575Z,99466.00
2022-10-25T07:07:54.264Z,99472.63
2022-10-25T07:10:24.164Z,99461.00
2022-10-25T07:12:54.194Z,99468.97
2022-10-25T07:15:25.527Z,99464.72
2022-10-25T07:17:56.714Z,99456.13
2022-10-25T07:20:25.114Z,99465.16
2022-10-25T07:22:59.203Z,99465.16
2022-10-25T07:25:28.749Z,99473.19
2022-10-25T07:27:58.595Z,99461.59
2022-10-25T07:30:27.047Z,99450.53
2022-10-25T07:32:55.524Z,99451.78
2022-10-25T07:35:23.956Z,99462.97
2022-10-25T07:37:52.325Z,99459.94
2022-10-25T07:40:20.734Z,99460.22
2022-10-25T07:42:50.885Z,99465.84
2022-10-25T07:45:24.484Z,99470.16
2022-10-25T07:47:54.965Z,99476.34
2022-10-25T07:50:23.397Z,99467.06
2022-10-25T07:52:51.785Z,99475.66
2022-10-25T07:55:20.226Z,99477.56
2022-10-25T07:57:48.833Z,99483.81
2022-10-25T08:00:22.495Z,99489.47
2022-10-25T08:02:56.512Z,99488.78
2022-10-25T08:05:28.459Z,99503.69
2022-10-25T08:08:05.006Z,99503.94
2022-10-25T08:10:36.935Z,99512.66
2022-10-25T08:13:05.384Z,99506.25
2022-10-25T08:15:33.858Z,99512.66
2022-10-25T08:18:04.845Z,99520.81
2022-10-25T08:21:00.072Z,99514.59
2022-10-25T08:23:21.875Z,99512.94
2022-10-25T08:25:52.705Z,99517.34
2022-10-25T08:28:21.875Z,99513.19
2022-10-25T08:30:50.249Z,99514.84
2022-10-25T08:33:20.135Z,99517.06
2022-10-25T08:35:48.684Z,99511.69
2022-10-25T08:38:18.198Z,99503.25
2022-10-25T08:40:55.904Z,99497.03
2022-10-25T08:43:44.384Z,99498.00
2022-10-25T08:46:14.975Z,99496.22
2022-10-25T08:48:50.098Z,99495.25
2022-10-25T08:51:26.325Z,99490.41
2022-10-25T08:53:58.970Z,99498.00
2022-10-25T08:56:29.715Z,99482.91
2022-10-25T08:59:05.412Z,99502.19
2022-10-25T09:01:38.058Z,99497.03
2022-10-25T09:04:07.966Z,99478.63
2022-10-25T09:06:40.626Z,99494.56
2022-10-25T09:09:23.274Z,99500.22
2022-10-25T09:12:05.423Z,99498.56
2022-10-25T09:14:45.285Z,99484.06
2022-10-25T09:17:20.384Z,99486.53
2022-10-25T09:20:03.906Z,99490.00
2022-10-25T09:22:40.675Z,99498.69
2022-10-25T09:25:20.135Z,99479.19
2022-10-25T09:27:55.630Z,99495.94
2022-10-25T09:30:24.104Z,99498.31
2022-10-25T09:32:56.955Z,99499.97
2022-10-25T09:35:30.155Z,99491.41
2022-10-25T09:38:01.485Z,99494.03
2022-10-25T09:40:35.182Z,99495.81
2022-10-25T09:43:12.836Z,99502.84
2022-10-25T09:45:48.266Z,99498.44
2022-10-25T09:48:22.714Z,99497.88
2022-10-25T09:50:56.985Z,99495.94
2022-10-25T09:53:25.467Z,99496.06
2022-10-25T09:55:55.695Z,99493.59
2022-10-25T09:58:26.294Z,99501.19
2022-10-25T10:00:57.364Z,99487.09
2022-10-25T10:03:30.724Z,99479.22
2022-10-25T10:06:07.944Z,99480.31
2022-10-25T10:08:37.214Z,99473.97
2022-10-25T10:11:07.305Z,99475.94
2022-10-25T10:13:40.435Z,99475.41
2022-10-25T10:16:21.494Z,99480.66
2022-10-25T10:18:50.344Z,99457.13
2022-10-25T10:21:24.165Z,99473.72
2022-10-25T10:23:55.294Z,99472.78
2022-10-25T10:26:29.881Z,99443.69
2022-10-25T10:29:08.925Z,99464.91
2022-10-25T10:31:39.763Z,99460.75
2022-10-25T10:34:21.914Z,99452.44
2022-10-25T10:37:03.984Z,99455.19
2022-10-25T10:39:32.694Z,99463.91
2022-10-25T10:42:04.345Z,99456.47
2022-10-25T10:44:34.969Z,99462.84
2022-10-25T10:47:11.385Z,99461.41
2022-10-25T10:49:42.387Z,99450.78
2022-10-25T10:52:30.744Z,99448.28
2022-10-25T10:55:01.348Z,99456.44
2022-10-25T10:57:34.245Z,99445.81
2022-10-25T11:00:03.444Z,99459.22
2022-10-25T11:02:41.011Z,99450.25
2022-10-25T11:05:25.117Z,99452.19
2022-10-25T11:07:58.249Z,99442.50
2022-10-25T11:10:30.361Z,99455.25
2022-10-25T11:13:10.535Z,99449.00
2022-10-25T11:16:05.155Z,99446.38
2022-10-25T11:18:43.524Z,99442.78
2022-10-25T11:21:22.434Z,99437.69
2022-10-25T11:24:04.176Z,99450.72
2022-10-25T11:26:44.506Z,99447.22
2022-10-25T11:29:21.395Z,99435.22
2022-10-25T11:31:59.414Z,99443.78
2022-10-25T11:34:39.777Z,99403.56
2022-10-25T11:37:18.647Z,99430.09
2022-10-25T11:40:05.835Z,99434.38
2022-10-25T11:42:56.994Z,99408.00
2022-10-25T11:45:39.616Z,99425.28
2022-10-25T11:48:25.974Z,99421.84
2022-10-25T11:51:00.938Z,99406.75
2022-10-25T11:53:52.755Z,99410.06
2022-10-25T11:56:29.865Z,99410.19
2022-10-25T11:59:07.425Z,99377.03
2022-10-25T12:01:46.803Z,99369.88
2022-10-25T12:04:37.778Z,99367.50
2022-10-25T12:07:14.635Z,99351.88
2022-10-25T12:09:53.024Z,99345.00
2022-10-25T12:12:27.135Z,99358.66
2022-10-25T12:15:01.824Z,99368.63
2022-10-25T12:17:32.846Z,99371.38
2022-10-25T12:20:07.729Z,99350.78
2022-10-25T12:22:41.165Z,99362.38
2022-10-25T12:25:19.794Z,99350.50
2022-10-25T12:27:56.606Z,99375.09
2022-10-25T12:32:59.244Z,99340.16
2022-10-25T12:35:32.674Z,99337.81
2022-10-25T12:38:07.454Z,99332.56
2022-10-25T12:40:42.098Z,99366.81
2022-10-25T12:43:22.436Z,99370.56
2022-10-25T12:46:19.225Z,99369.31
2022-10-25T12:49:23.836Z,99366.94
2022-10-25T12:52:08.466Z,99352.44
2022-10-25T12:54:56.045Z,99360.44
2022-10-25T12:57:32.125Z,99346.34
2022-10-25T13:00:11.969Z,99336.00
2022-10-25T13:03:28.196Z,99341.94
2022-10-25T13:06:22.246Z,99305.75
2022-10-25T13:08:51.584Z,99336.09
2022-10-25T13:11:20.194Z,99327.94
2022-10-25T13:13:52.086Z,99348.81
2022-10-25T13:16:32.604Z,99332.38
2022-10-25T13:19:49.440Z,99330.16
2022-10-25T13:22:39.283Z,99319.38
2022-10-25T13:25:18.908Z,99325.03
2022-10-25T13:28:31.601Z,99327.00
2022-10-25T13:31:35.405Z,99323.66
2022-10-25T13:34:38.595Z,99319.09
2022-10-25T13:37:31.034Z,99322.69
2022-10-25T13:40:01.365Z,99300.31
2022-10-25T13:42:33.984Z,99309.84
2022-10-25T13:45:11.154Z,99308.19
2022-10-25T13:47:42.267Z,99308.19
2022-10-25T13:50:17.679Z,99284.44
2022-10-25T13:52:52.994Z,99297.56
2022-10-25T13:55:24.266Z,99292.13
2022-10-25T13:57:54.927Z,99290.50
2022-10-25T14:00:41.557Z,99288.00
2022-10-25T14:03:26.504Z,99283.56
2022-10-25T14:06:18.265Z,99278.31
2022-10-25T14:08:55.236Z,99274.19
2022-10-25T14:11:35.204Z,99269.22
2022-10-25T14:14:15.355Z,99253.59
2022-10-25T14:16:48.944Z,99261.72
2022-10-25T14:19:21.984Z,99231.63
2022-10-25T14:21:54.834Z,99223.50
2022-10-25T14:24:24.304Z,99215.50
2022-10-25T14:26:57.895Z,99229.00
2022-10-25T14:29:28.437Z,99229.69
2022-10-25T14:31:58.804Z,99212.44
2022-10-25T14:34:30.315Z,99183.59
2022-10-25T14:37:00.976Z,99200.97
2022-10-25T14:39:31.357Z,99198.63
2022-10-25T14:42:01.484Z,99187.72
2022-10-25T14:44:32.265Z,99200.97
2022-10-25T14:47:02.175Z,99175.88
2022-10-25T14:49:30.755Z,99179.06
2022-10-25T14:52:12.094Z,99188.53
2022-10-25T14:54:42.324Z,99190.50
2022-10-25T14:57:12.904Z,99168.28
2022-10-25T14:59:46.386Z,99175.31
2022-10-25T15:02:19.655Z,99191.28
2022-10-25T15:04:50.624Z,99160.25
2022-10-25T15:07:24.494Z,99172.94
2022-10-25T15:09:54.513Z,99131.53
2022-10-25T15:12:24.984Z,99129.03
2022-10-25T15:14:57.674Z,99156.09
2022-10-25T15:17:29.035Z,99125.44
2022-10-25T15:20:27.717Z,99122.25
2022-10-25T15:23:06.831Z,99108.16
2022-10-25T15:25:39.729Z,99088.97
2022-10-25T15:28:12.864Z,99080.16
2022-10-25T15:30:45.234Z,99111.00
2022-10-25T15:33:16.976Z,99094.75
2022-10-25T15:35:51.614Z,99060.13
2022-10-25T15:38:21.746Z,99046.63
2022-10-25T15:40:51.295Z,99041.38
2022-10-25T15:43:19.805Z,99058.19
2022-10-25T15:45:48.685Z,99053.50
2022-10-25T15:48:19.364Z,99048.25
2022-10-25T15:50:51.324Z,99054.28
2022-10-25T15:53:22.024Z,99049.03
2022-10-25T15:55:51.244Z,99036.81
2022-10-25T15:58:20.144Z,99025.31
2022-10-25T16:00:52.294Z,99027.13
2022-10-25T16:03:24.918Z,99037.19
2022-10-25T16:05:57.085Z,99049.84
2022-10-25T16:08:27.183Z,99040.16
2022-10-25T16:10:57.495Z,99024.22
2022-10-25T16:13:32.147Z,99030.66
2022-10-25T16:16:04.672Z,99026.38
2022-10-25T16:18:36.815Z,98999.50
2022-10-25T16:21:05.566Z,99029.13
2022-10-25T16:23:39.545Z,98995.19
2022-10-25T16:26:41.975Z,99016.00
2022-10-25T16:29:16.066Z,98977.56
2022-10-25T16:31:45.004Z,98988.97
2022-10-25T16:34:15.656Z,98998.88
2022-10-25T16:36:44.262Z,98955.09
2022-10-25T16:39:14.635Z,98961.34
2022-10-25T16:41:44.707Z,98953.69
2022-10-25T16:44:15.475Z,98956.56
2022-10-25T16:46:43.974Z,98975.53
2022-10-25T16:49:12.864Z,98970.28
2022-10-25T16:51:41.905Z,98956.22
2022-10-25T16:54:11.964Z,98939.13
2022-10-25T16:56:41.944Z,98923.28
2022-10-25T16:59:10.626Z,98913.75
2022-10-25T17:01:42.494Z,98905.41
2022-10-25T17:04:13.545Z,98895.75
2022-10-25T17:06:43.355Z,98864.91
2022-10-25T17:09:12.556Z,98894.78
2022-10-25T17:11:42.584Z,98861.34
2022-10-25T17:14:11.585Z,98886.22
2022-10-25T17:16:41.824Z,98860.66
2022-10-25T17:19:11.148Z,98833.06
2022-10-25T17:21:39.894Z,98873.84
2022-10-25T17:24:09.911Z,98852.41
2022-10-25T17:26:39.444Z,98816.94
2022-10-25T17:29:09.325Z,98834.53
2022-10-25T17:31:38.497Z,98854.56
2022-10-25T17:34:07.112Z,98811.38
2022-10-25T17:36:35.829Z,98811.53
2022-10-25T17:39:04.354Z,98836.06
2022-10-25T17:41:33.074Z,98837.06
2022-10-25T17:44:01.596Z,98814.34
2022-10-25T17:46:32.804Z,98779.25
2022-10-25T17:49:06.000Z,98794.00
2022-10-25T17:51:36.355Z,98802.75
2022-10-25T17:54:04.955Z,98759.84
2022-10-25T17:56:33.502Z,98772.75
2022-10-25T17:59:04.383Z,98753.34
2022-10-25T18:01:37.418Z,98732.75
2022-10-25T18:04:06.026Z,98773.06
2022-10-25T18:06:34.525Z,98755.31
2022-10-25T18:09:04.490Z,98765.81
2022-10-25T18:11:33.338Z,98718.41
2022-10-25T18:14:03.224Z,98721.72
2022-10-25T18:16:32.304Z,98711.22
2022-10-25T18:19:04.874Z,98727.53
2022-10-25T18:21:34.594Z,98705.34
2022-10-25T18:24:05.254Z,98711.31
2022-10-25T18:26:34.846Z,98697.06
2022-10-25T18:29:03.634Z,98719.94
2022-10-25T18:31:32.185Z,98684.41
2022-10-25T18:34:04.657Z,98691.28
2022-10-25T18:36:33.565Z,98676.91
2022-10-25T18:39:02.028Z,98658.56
2022-10-25T18:41:33.226Z,98651.88
2022-10-25T18:44:03.024Z,98697.06
2022-10-25T18:46:32.924Z,98642.06
2022-10-25T18:49:04.824Z,98650.09
2022-10-25T18:51:33.484Z,98627.19
2022-10-25T18:54:04.045Z,98678.03
2022-10-25T18:56:33.234Z,98655.84
2022-10-25T18:59:01.824Z,98656.50
2022-10-25T19:01:32.953Z,98645.50
2022-10-25T19:04:05.026Z,98659.13
2022-10-25T19:06:33.964Z,98664.63
2022-10-25T19:09:04.084Z,98659.44
2022-10-25T19:11:33.749Z,98618.66
2022-10-25T19:14:04.242Z,98626.69
2022-10-25T19:16:33.054Z,98623.38
2022-10-25T19:19:07.369Z,98623.19
2022-10-25T19:21:35.970Z,98627.44
2022-10-25T19:24:04.744Z,98605.34
2022-10-25T19:26:33.215Z,98607.13
2022-10-25T19:29:02.419Z,98598.06
2022-10-25T19:31:31.102Z,98620.94
2022-10-25T19:34:03.127Z,98603.63
2022-10-25T19:36:33.384Z,98607.22
2022-10-25T19:39:01.805Z,98586.09
2022-10-25T19:41:30.274Z,98593.84
2022-10-25T19:43:59.305Z,98581.53
2022-10-25T19:46:27.754Z,98610.91
2022-10-25T19:48:56.500Z,98595.84
2022-10-25T19:51:25.138Z,98597.19
2022-10-25T19:53:54.959Z,98591.59
2022-10-25T19:56:24.587Z,98595.84
2022-10-25T19:58:52.995Z,98585.34
2022-10-25T20:01:23.535Z,98580.31
2022-10-25T20:03:54.843Z,98581.13
2022-10-25T20:06:25.704Z,98567.34
2022-10-25T20:08:56.977Z,98557.81
2022-10-25T20:11:26.475Z,98566.72
2022-10-25T20:13:56.099Z,98548.69
2022-10-25T20:16:25.463Z,98553.94
2022-10-25T20:18:53.918Z,98546.06
2022-10-25T20:21:26.185Z,98535.56
2022-10-25T20:23:58.196Z,98514.88
2022-10-25T20:26:28.167Z,98520.75
2022-10-25T20:28:58.625Z,98511.72
2022-10-25T20:31:28.556Z,98517.81
2022-10-25T20:33:57.315Z,98531.56
2022-10-25T20:36:26.435Z,98526.19
2022-10-25T20:38:59.296Z,98519.09
2022-10-25T20:41:30.727Z,98505.00
2022-10-25T20:44:01.194Z,98493.34
2022-10-25T20:46:30.577Z,98497.28
2022-10-25T20:48:59.745Z,98500.06
2022-10-25T20:51:28.745Z,98489.59
2022-10-25T20:53:58.713Z,98476.28
2022-10-25T20:56:27.205Z,98491.03
2022-10-25T20:58:56.056Z,98471.72
2022-10-25T21:01:25.013Z,98473.16
2022-10-25T21:03:54.564Z,98477.78
2022-10-25T21:06:23.174Z,98452.22
2022-10-25T21:08:53.584Z,98454.47
2022-10-25T21:11:23.745Z,98440.06
2022-10-25T21:13:52.865Z,98469.59
2022-10-25T21:16:22.655Z,98450.88
2022-10-25T21:18:52.778Z,98452.84
2022-10-25T21:21:22.116Z,98451.69
2022-10-25T21:23:56.670Z,98433.84
2022-10-25T21:26:26.537Z,98437.94
2022-10-25T21:28:54.984Z,98443.72
2022-10-25T21:31:23.455Z,98440.09
2022-10-25T21:33:54.032Z,98439.91
2022-10-25T21:36:25.604Z,98437.47
2022-10-25T21:38:54.215Z,98435.34
2022-10-25T21:41:27.351Z,98431.09
2022-10-25T21:43:56.640Z,98430.91
2022-10-25T21:46:26.901Z,98424.03
2022-10-25T21:48:56.104Z,98421.41
2022-10-25T21:51:25.696Z,98424.03
2022-10-25T21:53:55.370Z,98425.84
2022-10-25T21:56:31.192Z,98433.53
2022-10-25T21:59:01.164Z,98436.00
2022-10-25T22:01:31.178Z,98440.28
2022-10-25T22:04:00.197Z,98429.41
2022-10-25T22:06:29.228Z,98439.78
2022-10-25T22:08:58.364Z,98437.81
2022-10-25T22:11:30.308Z,98433.41
2022-10-25T22:14:00.535Z,98435.03
2022-10-25T22:16:30.497Z,98427.16
2022-10-25T22:19:00.257Z,98421.09
2022-10-25T22:21:30.645Z,98415.16
2022-10-25T22:23:59.205Z,98396.16
2022-10-25T22:26:29.254Z,98393.53
2022-10-25T22:28:58.996Z,98377.78
2022-10-25T22:31:31.375Z,98395.84
2022-10-25T22:34:01.604Z,98382.72
2022-10-25T22:36:31.228Z,98401.91
2022-10-25T22:38:59.920Z,98392.22
2022-10-25T22:41:31.046Z,98378.44
2022-10-25T22:43:59.895Z,98392.38
2022-10-25T22:46:30.365Z,98389.91
2022-10-25T22:49:00.184Z,98396.47
2022-10-25T22:51:29.845Z,98388.94
2022-10-25T22:53:58.350Z,98399.09
2022-10-25T22:56:28.164Z,98395.47
2022-10-25T22:58:59.919Z,98394.84
2022-10-25T23:01:30.408Z,98392.69
2022-10-25T23:04:00.437Z,98391.22
2022-10-25T23:06:30.855Z,98389.59
2022-10-25T23:09:00.986Z,98394.66
2022-10-25T23:11:30.804Z,98401.72
2022-10-25T23:14:01.825Z,98396.47
2022-10-25T23:16:31.306Z,98386.31
2022-10-25T23:19:00.326Z,98378.59
2022-10-25T23:21:31.224Z,98377.47
2022-10-25T23:24:01.446Z,98384.16
2022-10-25T23:26:32.221Z,98376.78
2022-10-25T23:29:03.234Z,98377.78
2022-10-25T23:31:32.771Z,98380.41
2022-10-25T23:34:05.188Z,98370.88
2022-10-25T23:36:38.135Z,98380.09
2022-10-25T23:39:08.464Z,98375.00
2022-10-25T23:41:36.955Z,98379.91
2022-10-25T23:44:07.185Z,98377.97
2022-10-25T23:46:38.124Z,98376.28
2022-10-25T23:49:09.545Z,98376.16
2022-10-25T23:51:41.817Z,98372.38
2022-10-25T23:54:11.105Z,98376.78
2022-10-25T23:56:59.794Z,98363.66
2022-10-25T23:59:35.067Z,98367.13
